Chinle, Arizona
Current Conditions -  °F | °C
As of 8:53 PM on Sunday 25 Jan 2015 (Local Time) from KRQE Reporting Station
Clear Clear  
Wind Chill: 32°   Ceiling: Unl
Heat Index: 32°   Visibility: 10mi
Dew Point: 24°   Wind: 0mph
Humidity: 73%   Direction: NA
Pressure: 30.33"   Gusts: NA
Location:  36.15°N, 109.55°W
Report Text: KRQE 260353Z AUTO 00000KT 10SM CLR 00/M04 A3033 RMK AO2 SLP261 T00001044 TSNO
Loading
Personal Weather Stations






























Interactive Weather Map New forecast layout! Learn more

10-Day Weather Forecast

Advertisements
Track Severe Weather on mobile